createdAt,value
2023-03-29T00:00:16.926Z,60.37
2023-03-29T00:03:04.730Z,60.66
2023-03-29T00:05:35.109Z,60.46
2023-03-29T00:08:04.611Z,60.58
2023-03-29T00:10:32.782Z,60.33
2023-03-29T00:13:00.524Z,59.92
2023-03-29T00:15:28.189Z,60.26
2023-03-29T00:17:56.155Z,60.35
2023-03-29T00:20:23.918Z,59.83
2023-03-29T00:22:51.886Z,60.06
2023-03-29T00:25:19.550Z,60.18
2023-03-29T00:27:47.309Z,60.21
2023-03-29T00:30:15.600Z,60.16
2023-03-29T00:32:43.364Z,59.77
2023-03-29T00:35:11.224Z,59.88
2023-03-29T00:37:38.877Z,60.04
2023-03-29T00:40:11.253Z,60.11
2023-03-29T00:42:38.923Z,60.11
2023-03-29T00:45:07.295Z,60.24
2023-03-29T00:47:35.080Z,60.23
2023-03-29T00:50:02.821Z,59.77
2023-03-29T00:52:30.489Z,60.22
2023-03-29T00:54:58.142Z,60.02
2023-03-29T00:57:27.695Z,60.20
2023-03-29T00:59:55.614Z,60.15
2023-03-29T01:02:23.410Z,60.11
2023-03-29T01:04:51.145Z,59.99
2023-03-29T01:07:21.566Z,60.10
2023-03-29T01:09:49.438Z,60.35
2023-03-29T01:12:20.172Z,60.19
2023-03-29T01:14:47.942Z,60.18
2023-03-29T01:17:16.317Z,60.27
2023-03-29T01:19:43.984Z,60.37
2023-03-29T01:22:13.701Z,60.43
2023-03-29T01:24:42.241Z,60.40
2023-03-29T01:27:10.032Z,60.67
2023-03-29T01:29:37.797Z,60.81
2023-03-29T01:32:05.624Z,60.84
2023-03-29T01:34:33.533Z,60.97
2023-03-29T01:37:01.191Z,61.11
2023-03-29T01:39:28.955Z,61.20
2023-03-29T01:41:56.719Z,61.36
2023-03-29T01:44:24.484Z,61.21
2023-03-29T01:46:52.149Z,61.33
2023-03-29T01:49:19.806Z,61.26
2023-03-29T01:51:47.468Z,61.29
2023-03-29T01:54:15.141Z,61.34
2023-03-29T01:56:42.933Z,61.41
2023-03-29T01:59:11.487Z,61.30
2023-03-29T02:01:39.181Z,61.26
2023-03-29T02:04:07.008Z,61.07
2023-03-29T02:06:34.772Z,61.19
2023-03-29T02:09:05.095Z,61.24
2023-03-29T02:11:32.753Z,61.17
2023-03-29T02:14:00.928Z,61.19
2023-03-29T02:16:28.899Z,61.16
2023-03-29T02:18:57.171Z,61.06
2023-03-29T02:21:24.940Z,61.28
2023-03-29T02:23:54.868Z,61.46
2023-03-29T02:26:24.129Z,61.40
2023-03-29T02:28:53.144Z,61.46
2023-03-29T02:31:21.576Z,61.48
2023-03-29T02:33:49.386Z,61.58
2023-03-29T02:36:17.849Z,61.66
2023-03-29T02:38:46.656Z,61.80
2023-03-29T02:41:14.420Z,61.65
2023-03-29T02:43:42.490Z,61.67
2023-03-29T02:46:10.192Z,61.68
2023-03-29T02:48:38.028Z,61.89
2023-03-29T02:51:05.991Z,61.69
2023-03-29T02:53:33.761Z,61.79
2023-03-29T02:56:02.473Z,61.87
2023-03-29T02:58:31.850Z,61.93
2023-03-29T03:00:59.829Z,62.03
2023-03-29T03:03:27.929Z,61.79
2023-03-29T03:05:55.650Z,61.86
2023-03-29T03:08:23.411Z,61.84
2023-03-29T03:10:51.076Z,61.87
2023-03-29T03:13:18.938Z,61.91
2023-03-29T03:15:49.426Z,61.68
2023-03-29T03:18:17.847Z,61.61
2023-03-29T03:20:46.844Z,61.72
2023-03-29T03:23:14.604Z,61.75
2023-03-29T03:25:42.261Z,61.81
2023-03-29T03:28:10.445Z,61.78
2023-03-29T03:30:38.812Z,61.96
2023-03-29T03:33:06.506Z,61.70
2023-03-29T03:35:35.104Z,61.73
2023-03-29T03:38:02.922Z,61.69
2023-03-29T03:40:30.690Z,61.70
2023-03-29T03:42:58.460Z,61.70
2023-03-29T03:45:26.322Z,61.75
2023-03-29T03:47:54.241Z,61.91
2023-03-29T03:50:21.951Z,61.97
2023-03-29T03:52:49.627Z,61.70
2023-03-29T03:55:17.993Z,61.76
2023-03-29T03:57:45.919Z,61.90
2023-03-29T04:00:19.983Z,61.96
2023-03-29T04:02:48.482Z,62.11
2023-03-29T04:05:17.339Z,61.96
2023-03-29T04:07:45.001Z,62.06
2023-03-29T04:10:12.764Z,62.17
2023-03-29T04:12:40.531Z,62.19
2023-03-29T04:15:08.902Z,62.03
2023-03-29T04:17:37.351Z,62.16
2023-03-29T04:20:12.798Z,62.22
2023-03-29T04:22:41.344Z,62.19
2023-03-29T04:25:10.571Z,62.22
2023-03-29T04:27:38.412Z,62.16
2023-03-29T04:30:07.472Z,62.20
2023-03-29T04:32:35.253Z,62.26
2023-03-29T04:35:04.955Z,62.24
2023-03-29T04:37:32.714Z,62.26
2023-03-29T04:40:09.208Z,62.36
2023-03-29T04:42:37.640Z,62.33
2023-03-29T04:45:07.396Z,62.43
2023-03-29T04:47:36.723Z,62.49
2023-03-29T04:50:04.535Z,62.61
2023-03-29T04:52:33.561Z,62.64
2023-03-29T04:55:01.806Z,62.58
2023-03-29T04:57:29.570Z,62.57
2023-03-29T04:59:57.336Z,62.78
2023-03-29T05:02:25.141Z,62.74
2023-03-29T05:04:52.864Z,62.74
2023-03-29T05:07:20.626Z,62.91
2023-03-29T05:09:48.797Z,62.89
2023-03-29T05:12:16.561Z,62.81
2023-03-29T05:14:44.237Z,62.77
2023-03-29T05:17:11.989Z,62.83
2023-03-29T05:19:39.761Z,62.65
2023-03-29T05:22:07.731Z,62.72
2023-03-29T05:24:35.513Z,62.68
2023-03-29T05:27:03.971Z,62.55
2023-03-29T05:29:34.389Z,62.67
2023-03-29T05:32:02.198Z,62.65
2023-03-29T05:34:31.659Z,62.41
2023-03-29T05:36:59.731Z,62.45
2023-03-29T05:39:27.491Z,62.23
2023-03-29T05:41:55.254Z,62.29
2023-03-29T05:44:23.019Z,62.31
2023-03-29T05:46:50.893Z,62.31
2023-03-29T05:49:18.865Z,62.35
2023-03-29T05:51:46.622Z,62.33
2023-03-29T05:54:15.304Z,62.28
2023-03-29T05:56:43.096Z,62.05
2023-03-29T05:59:10.835Z,62.07
2023-03-29T06:01:40.234Z,61.89
2023-03-29T06:04:08.087Z,62.12
2023-03-29T06:06:36.050Z,61.87
2023-03-29T06:09:04.347Z,62.27
2023-03-29T06:11:33.240Z,62.16
2023-03-29T06:14:02.640Z,62.37
2023-03-29T06:16:30.437Z,62.05
2023-03-29T06:18:58.475Z,61.85
2023-03-29T06:21:27.468Z,61.87
2023-03-29T06:23:55.136Z,62.09
2023-03-29T06:26:23.311Z,62.16
2023-03-29T06:28:52.386Z,62.05
2023-03-29T06:31:21.293Z,61.90
2023-03-29T06:33:49.773Z,62.21
2023-03-29T06:36:17.571Z,62.07
2023-03-29T06:38:46.222Z,61.93
2023-03-29T06:41:15.118Z,62.02
2023-03-29T06:43:42.876Z,61.96
2023-03-29T06:46:12.563Z,61.95
2023-03-29T06:48:41.195Z,61.59
2023-03-29T06:51:08.946Z,61.51
2023-03-29T06:53:37.007Z,61.39
2023-03-29T06:56:05.505Z,61.01
2023-03-29T06:58:33.254Z,61.13
2023-03-29T07:01:02.574Z,61.26
2023-03-29T07:03:30.632Z,61.28
2023-03-29T07:06:01.454Z,60.65
2023-03-29T07:08:31.979Z,60.42
2023-03-29T07:11:00.083Z,60.64
2023-03-29T07:13:28.023Z,60.48
2023-03-29T07:15:56.049Z,60.37
2023-03-29T07:18:24.062Z,60.33
2023-03-29T07:20:52.444Z,60.40
2023-03-29T07:23:20.081Z,60.13
2023-03-29T07:25:47.767Z,59.77
2023-03-29T07:28:15.424Z,59.46
2023-03-29T07:30:43.088Z,58.76
2023-03-29T07:33:10.838Z,59.33
2023-03-29T07:35:38.665Z,58.95
2023-03-29T07:38:08.427Z,58.96
2023-03-29T07:40:36.071Z,58.57
2023-03-29T07:43:09.138Z,57.58
2023-03-29T07:45:37.253Z,58.48
2023-03-29T07:48:05.158Z,58.11
2023-03-29T07:50:32.990Z,57.80
2023-03-29T07:53:01.665Z,57.29
2023-03-29T07:55:29.426Z,56.10
2023-03-29T07:57:57.092Z,55.43
2023-03-29T08:00:25.221Z,54.43
2023-03-29T08:02:53.263Z,53.16
2023-03-29T08:05:29.059Z,53.68
2023-03-29T08:08:01.562Z,53.72
2023-03-29T08:10:29.220Z,54.09
2023-03-29T08:12:58.420Z,52.54
2023-03-29T08:15:26.800Z,51.90
2023-03-29T08:17:54.701Z,52.19
2023-03-29T08:20:22.540Z,51.68
2023-03-29T08:22:50.165Z,50.89
2023-03-29T08:25:17.959Z,50.80
2023-03-29T08:27:45.625Z,52.07
2023-03-29T08:30:15.750Z,51.32
2023-03-29T08:32:43.680Z,50.60
2023-03-29T08:35:11.480Z,50.97
2023-03-29T08:37:39.346Z,50.13
2023-03-29T08:40:07.105Z,47.88
2023-03-29T08:42:34.815Z,48.35
2023-03-29T08:45:03.047Z,48.95
2023-03-29T08:47:31.342Z,49.77
2023-03-29T08:49:59.391Z,48.97
2023-03-29T08:52:27.328Z,48.40
2023-03-29T08:54:56.141Z,49.33
2023-03-29T08:57:24.061Z,47.92
2023-03-29T08:59:51.979Z,48.57
2023-03-29T09:02:19.680Z,46.83
2023-03-29T09:04:49.127Z,46.91
2023-03-29T09:07:17.216Z,46.87
2023-03-29T09:09:45.181Z,45.52
2023-03-29T09:12:13.355Z,45.48
2023-03-29T09:14:41.231Z,47.21
2023-03-29T09:17:08.990Z,46.91
2023-03-29T09:19:36.657Z,45.82
2023-03-29T09:22:04.617Z,44.69
2023-03-29T09:24:32.687Z,43.10
2023-03-29T09:27:00.458Z,42.67
2023-03-29T09:29:28.215Z,43.57
2023-03-29T09:31:56.666Z,43.87
2023-03-29T09:34:24.431Z,43.62
2023-03-29T09:36:52.682Z,42.42
2023-03-29T09:39:23.367Z,43.71
2023-03-29T09:41:51.032Z,43.29
2023-03-29T09:44:30.138Z,43.90
2023-03-29T09:46:58.640Z,43.53
2023-03-29T09:49:26.405Z,41.43
2023-03-29T09:51:54.576Z,41.75
2023-03-29T09:54:22.446Z,42.53
2023-03-29T09:56:50.262Z,41.95
2023-03-29T09:59:18.080Z,40.73
2023-03-29T10:01:46.006Z,40.63
2023-03-29T10:04:13.851Z,38.57
2023-03-29T10:06:41.572Z,39.32
2023-03-29T10:09:09.339Z,39.75
2023-03-29T10:11:37.212Z,39.37
2023-03-29T10:14:04.979Z,40.41
2023-03-29T10:16:32.831Z,38.09
2023-03-29T10:19:00.598Z,39.32
2023-03-29T10:21:28.222Z,39.62
2023-03-29T10:23:55.922Z,40.61
2023-03-29T10:26:24.094Z,39.53
2023-03-29T10:28:51.859Z,40.21
2023-03-29T10:31:19.746Z,41.46
2023-03-29T10:33:47.492Z,41.27
2023-03-29T10:36:15.646Z,40.86
2023-03-29T10:38:43.425Z,40.44
2023-03-29T10:41:11.207Z,40.39
2023-03-29T10:43:52.778Z,39.65
2023-03-29T10:46:21.004Z,41.04
2023-03-29T10:48:49.234Z,40.84
2023-03-29T10:51:17.092Z,40.05
2023-03-29T10:53:44.860Z,41.24
2023-03-29T10:56:12.936Z,39.75
2023-03-29T10:58:40.694Z,39.30
2023-03-29T11:01:08.377Z,38.72
2023-03-29T11:03:36.277Z,39.70
2023-03-29T11:06:04.498Z,39.77
2023-03-29T11:08:32.214Z,39.25
2023-03-29T11:11:00.018Z,40.15
2023-03-29T11:13:28.094Z,39.90
2023-03-29T11:15:56.007Z,37.97
2023-03-29T11:18:23.835Z,38.60
2023-03-29T11:20:52.103Z,38.48
2023-03-29T11:23:19.765Z,37.42
2023-03-29T11:25:47.629Z,36.77
2023-03-29T11:28:15.395Z,35.55
2023-03-29T11:30:43.160Z,35.23
2023-03-29T11:33:10.831Z,36.36
2023-03-29T11:35:38.648Z,37.42
2023-03-29T11:38:06.961Z,37.48
2023-03-29T11:40:36.400Z,36.84
2023-03-29T11:43:04.744Z,37.45
2023-03-29T11:45:32.715Z,36.37
2023-03-29T11:48:00.531Z,36.62
2023-03-29T11:50:28.343Z,36.85
2023-03-29T11:52:56.209Z,36.56
2023-03-29T11:55:23.977Z,36.33
2023-03-29T11:57:51.741Z,35.59
2023-03-29T12:00:19.910Z,34.92
2023-03-29T12:02:48.447Z,34.04
2023-03-29T12:05:17.900Z,35.04
2023-03-29T12:07:45.863Z,36.13
2023-03-29T12:10:13.630Z,35.72
2023-03-29T12:12:41.293Z,35.73
2023-03-29T12:15:09.361Z,35.58
2023-03-29T12:17:37.395Z,35.87
2023-03-29T12:20:05.337Z,35.03
2023-03-29T12:22:33.879Z,35.05
2023-03-29T12:25:01.652Z,35.76
2023-03-29T12:27:29.410Z,36.10
2023-03-29T12:29:57.174Z,36.30
2023-03-29T12:32:24.878Z,35.29
2023-03-29T12:34:52.704Z,34.55
2023-03-29T12:37:21.185Z,34.83
2023-03-29T12:39:49.362Z,35.25
2023-03-29T12:42:17.278Z,34.99
2023-03-29T12:44:44.992Z,35.74
2023-03-29T12:47:12.652Z,36.28
2023-03-29T12:49:40.315Z,34.90
2023-03-29T12:52:07.978Z,34.97
2023-03-29T12:54:35.860Z,35.19
2023-03-29T12:57:03.543Z,34.95
2023-03-29T12:59:31.370Z,35.33
2023-03-29T13:01:59.071Z,35.36
2023-03-29T13:04:27.208Z,34.75
2023-03-29T13:06:56.372Z,33.77
2023-03-29T13:09:24.077Z,34.63
2023-03-29T13:11:51.852Z,35.43
2023-03-29T13:14:19.603Z,34.74
2023-03-29T13:16:47.361Z,34.62
2023-03-29T13:19:15.023Z,34.77
2023-03-29T13:21:42.784Z,35.42
2023-03-29T13:24:10.441Z,35.32
2023-03-29T13:26:38.108Z,34.22
2023-03-29T13:29:05.766Z,34.47
2023-03-29T13:31:33.469Z,34.63
2023-03-29T13:34:01.508Z,34.18
2023-03-29T13:36:30.747Z,34.25
2023-03-29T13:39:00.406Z,33.65
2023-03-29T13:41:28.986Z,34.11
2023-03-29T13:43:56.752Z,34.14
2023-03-29T13:46:24.486Z,33.60
2023-03-29T13:48:53.972Z,33.57
2023-03-29T13:51:21.997Z,33.85
2023-03-29T13:53:49.652Z,34.06
2023-03-29T13:56:17.320Z,33.76
2023-03-29T13:58:45.079Z,33.22
2023-03-29T14:01:12.989Z,34.38
2023-03-29T14:03:40.713Z,34.45
2023-03-29T14:06:08.370Z,33.53
2023-03-29T14:08:36.122Z,33.50
2023-03-29T14:11:03.909Z,34.51
2023-03-29T14:13:31.661Z,34.44
2023-03-29T14:16:00.286Z,34.86
2023-03-29T14:18:28.108Z,34.14
2023-03-29T14:20:55.872Z,34.22
2023-03-29T14:23:23.644Z,33.60
2023-03-29T14:25:51.495Z,34.15
2023-03-29T14:28:19.275Z,34.66
2023-03-29T14:30:47.445Z,34.90
2023-03-29T14:33:15.104Z,35.35
2023-03-29T14:35:42.931Z,34.38
2023-03-29T14:38:10.628Z,34.54
2023-03-29T14:40:38.291Z,33.41
2023-03-29T14:43:06.081Z,33.82
2023-03-29T14:45:33.826Z,33.26
2023-03-29T14:48:01.833Z,33.64
2023-03-29T14:50:29.653Z,33.99
2023-03-29T14:52:57.420Z,33.16
2023-03-29T14:55:25.170Z,32.86
2023-03-29T14:57:52.947Z,33.32
2023-03-29T15:00:21.427Z,33.41
2023-03-29T15:02:49.243Z,32.48
2023-03-29T15:05:17.162Z,32.07
2023-03-29T15:07:45.030Z,32.63
2023-03-29T15:10:12.686Z,31.88
2023-03-29T15:12:40.350Z,31.97
2023-03-29T15:15:10.679Z,32.39
2023-03-29T15:17:50.314Z,32.41
2023-03-29T15:20:21.602Z,32.30
2023-03-29T15:22:49.539Z,32.04
2023-03-29T15:25:17.502Z,32.63
2023-03-29T15:27:45.263Z,32.51
2023-03-29T15:30:13.031Z,32.78
2023-03-29T15:32:41.780Z,32.82
2023-03-29T15:35:09.788Z,32.48
2023-03-29T15:37:37.960Z,32.94
2023-03-29T15:40:09.931Z,33.09
2023-03-29T15:42:37.787Z,33.06
2023-03-29T15:45:06.652Z,33.76
2023-03-29T15:47:34.377Z,33.84
2023-03-29T15:50:02.210Z,33.43
2023-03-29T15:52:29.979Z,32.91
2023-03-29T15:54:57.731Z,33.78
2023-03-29T15:57:25.708Z,34.32
2023-03-29T15:59:53.582Z,34.38
2023-03-29T16:02:21.910Z,32.98
2023-03-29T16:04:49.815Z,33.01
2023-03-29T16:07:17.474Z,33.36
2023-03-29T16:09:46.060Z,33.32
2023-03-29T16:12:13.718Z,33.55
2023-03-29T16:14:43.036Z,34.08
2023-03-29T16:17:11.089Z,34.37
2023-03-29T16:19:38.859Z,34.20
2023-03-29T16:22:07.693Z,33.50
2023-03-29T16:24:35.820Z,34.20
2023-03-29T16:27:04.001Z,33.85
2023-03-29T16:29:31.994Z,33.91
2023-03-29T16:32:00.221Z,34.27
2023-03-29T16:34:28.529Z,34.66
2023-03-29T16:36:56.171Z,34.42
2023-03-29T16:39:23.943Z,34.71
2023-03-29T16:41:51.698Z,34.79
2023-03-29T16:44:21.776Z,35.48
2023-03-29T16:46:51.835Z,35.38
2023-03-29T16:49:19.744Z,36.35
2023-03-29T16:51:48.081Z,37.82
2023-03-29T16:54:17.376Z,37.48
2023-03-29T16:56:45.175Z,37.71
2023-03-29T16:59:12.906Z,38.38
2023-03-29T17:01:40.928Z,39.16
2023-03-29T17:04:09.015Z,39.31
2023-03-29T17:06:37.233Z,40.13
2023-03-29T17:09:06.258Z,40.43
2023-03-29T17:11:34.307Z,40.85
2023-03-29T17:14:02.156Z,41.43
2023-03-29T17:16:29.850Z,41.68
2023-03-29T17:18:58.709Z,42.12
2023-03-29T17:21:27.490Z,42.27
2023-03-29T17:23:55.670Z,42.24
2023-03-29T17:26:23.325Z,42.40
2023-03-29T17:28:51.094Z,42.23
2023-03-29T17:31:19.896Z,42.55
2023-03-29T17:33:50.611Z,42.93
2023-03-29T17:36:19.340Z,43.44
2023-03-29T17:38:48.973Z,43.73
2023-03-29T17:41:16.678Z,43.57
2023-03-29T17:43:44.805Z,43.70
2023-03-29T17:46:12.537Z,43.91
2023-03-29T17:48:40.376Z,43.12
2023-03-29T17:51:08.033Z,42.72
2023-03-29T17:53:35.706Z,42.88
2023-03-29T17:56:04.434Z,43.34
2023-03-29T17:58:33.074Z,43.65
2023-03-29T18:01:01.578Z,43.32
2023-03-29T18:03:29.249Z,43.21
2023-03-29T18:05:56.979Z,43.04
2023-03-29T18:08:24.597Z,43.41
2023-03-29T18:10:52.301Z,43.51
2023-03-29T18:13:25.634Z,43.73
2023-03-29T18:15:53.353Z,43.51
2023-03-29T18:18:21.029Z,43.93
2023-03-29T18:20:48.783Z,44.36
2023-03-29T18:23:16.442Z,44.40
2023-03-29T18:25:44.106Z,44.78
2023-03-29T18:28:11.972Z,44.90
2023-03-29T18:30:39.739Z,45.00
2023-03-29T18:33:07.552Z,45.31
2023-03-29T18:35:35.285Z,45.15
2023-03-29T18:38:03.644Z,45.12
2023-03-29T18:40:31.308Z,45.72
2023-03-29T18:42:58.967Z,45.41
2023-03-29T18:45:26.734Z,45.33
2023-03-29T18:47:54.441Z,45.22
2023-03-29T18:50:22.569Z,45.20
2023-03-29T18:52:50.230Z,45.79
2023-03-29T18:55:17.891Z,45.71
2023-03-29T18:57:45.692Z,45.78
2023-03-29T19:00:13.422Z,45.40
2023-03-29T19:02:41.272Z,45.40
2023-03-29T19:05:09.179Z,45.60
2023-03-29T19:07:37.020Z,45.61
2023-03-29T19:10:05.163Z,45.53
2023-03-29T19:12:33.469Z,45.93
2023-03-29T19:15:01.234Z,46.22
2023-03-29T19:17:29.015Z,46.47
2023-03-29T19:19:56.976Z,46.22
2023-03-29T19:22:24.617Z,46.22
2023-03-29T19:24:52.393Z,46.19
2023-03-29T19:27:20.158Z,46.39
2023-03-29T19:29:48.437Z,46.11
2023-03-29T19:32:16.408Z,46.17
2023-03-29T19:34:44.077Z,46.27
2023-03-29T19:37:11.837Z,46.03
2023-03-29T19:39:41.229Z,46.38
2023-03-29T19:42:08.885Z,46.20
2023-03-29T19:44:38.392Z,46.38
2023-03-29T19:47:06.212Z,46.50
2023-03-29T19:49:38.422Z,46.62
2023-03-29T19:52:06.492Z,46.66
2023-03-29T19:54:34.182Z,46.93
2023-03-29T19:57:02.976Z,46.85
2023-03-29T19:59:31.622Z,46.85
2023-03-29T20:01:59.520Z,46.83
2023-03-29T20:04:29.014Z,46.85
2023-03-29T20:06:57.790Z,46.97
2023-03-29T20:09:25.450Z,46.94
2023-03-29T20:11:53.212Z,47.27
2023-03-29T20:14:20.975Z,47.22
2023-03-29T20:16:50.933Z,47.20
2023-03-29T20:19:19.476Z,47.19
2023-03-29T20:21:50.923Z,47.43
2023-03-29T20:24:19.102Z,47.24
2023-03-29T20:26:46.725Z,47.26
2023-03-29T20:29:15.551Z,47.33
2023-03-29T20:31:43.273Z,47.26
2023-03-29T20:34:11.383Z,47.59
2023-03-29T20:36:40.551Z,47.50
2023-03-29T20:39:08.548Z,47.75
2023-03-29T20:41:38.464Z,47.63
2023-03-29T20:44:06.437Z,47.82
2023-03-29T20:46:34.374Z,47.89
2023-03-29T20:49:02.280Z,47.70
2023-03-29T20:51:33.108Z,47.91
2023-03-29T20:54:02.782Z,47.96
2023-03-29T20:56:30.686Z,48.06
2023-03-29T20:58:59.058Z,48.11
2023-03-29T21:01:28.085Z,47.94
2023-03-29T21:03:55.987Z,48.18
2023-03-29T21:06:24.603Z,47.86
2023-03-29T21:08:52.760Z,47.96
2023-03-29T21:11:20.444Z,48.11
2023-03-29T21:13:48.211Z,48.43
2023-03-29T21:16:15.987Z,48.37
2023-03-29T21:18:44.046Z,48.20
2023-03-29T21:21:11.700Z,48.54
2023-03-29T21:23:39.468Z,48.40
2023-03-29T21:26:08.052Z,48.51
2023-03-29T21:28:36.023Z,48.58
2023-03-29T21:31:04.964Z,48.55
2023-03-29T21:33:33.090Z,48.79
2023-03-29T21:36:01.293Z,48.79
2023-03-29T21:38:29.022Z,48.82
2023-03-29T21:40:58.242Z,48.93
2023-03-29T21:43:25.954Z,48.92
2023-03-29T21:45:53.844Z,48.98
2023-03-29T21:48:21.507Z,48.86
2023-03-29T21:50:49.683Z,48.84
2023-03-29T21:53:18.478Z,49.03
2023-03-29T21:55:46.234Z,49.05
2023-03-29T21:58:13.895Z,49.00
2023-03-29T22:00:41.923Z,49.24
2023-03-29T22:03:09.696Z,48.94
2023-03-29T22:05:37.501Z,49.23
2023-03-29T22:08:05.267Z,49.02
2023-03-29T22:10:33.747Z,49.40
2023-03-29T22:13:01.505Z,49.22
2023-03-29T22:15:35.653Z,49.17
2023-03-29T22:18:03.415Z,49.44
2023-03-29T22:20:31.249Z,49.54
2023-03-29T22:22:58.910Z,49.47
2023-03-29T22:25:27.289Z,49.65
2023-03-29T22:27:54.952Z,49.58
2023-03-29T22:30:23.039Z,49.57
2023-03-29T22:32:51.018Z,49.48
2023-03-29T22:35:18.956Z,49.76
2023-03-29T22:37:46.618Z,49.71
2023-03-29T22:40:14.280Z,49.87
2023-03-29T22:42:41.958Z,50.03
2023-03-29T22:45:09.708Z,50.20
2023-03-29T22:47:37.538Z,49.93
2023-03-29T22:50:05.233Z,49.85
2023-03-29T22:52:33.003Z,50.22
2023-03-29T22:55:00.676Z,50.24
2023-03-29T22:57:28.445Z,50.18
2023-03-29T22:59:56.288Z,50.22
2023-03-29T23:02:24.504Z,50.32
2023-03-29T23:04:52.360Z,50.33
2023-03-29T23:07:20.198Z,50.66
2023-03-29T23:09:47.855Z,50.69
2023-03-29T23:12:15.726Z,50.63
2023-03-29T23:14:45.431Z,50.56
2023-03-29T23:17:13.602Z,50.80
2023-03-29T23:19:41.790Z,50.53
2023-03-29T23:22:09.440Z,50.76
2023-03-29T23:24:37.101Z,50.67
2023-03-29T23:27:05.682Z,50.63
2023-03-29T23:29:34.678Z,50.92
2023-03-29T23:32:02.343Z,50.97
2023-03-29T23:34:30.315Z,51.24
2023-03-29T23:36:57.969Z,51.42
2023-03-29T23:39:25.633Z,51.37
2023-03-29T23:41:53.396Z,51.66
2023-03-29T23:44:21.056Z,51.55
2023-03-29T23:46:48.854Z,51.67
2023-03-29T23:49:17.404Z,51.68
2023-03-29T23:51:45.166Z,51.87
2023-03-29T23:54:13.137Z,52.03
2023-03-29T23:56:40.887Z,52.15
2023-03-29T23:59:09.091Z,51.89
